sensor_id;sensor_type;location;lat;lon;timestamp;P1;durP1;ratioP1;P2;durP2;ratioP2
31618;SDS011;18230;51.502;7.108;2024-01-15T00:00:58;75.22;;;33.03;;
31618;SDS011;18230;51.502;7.108;2024-01-15T00:05:59;79.50;;;34.80;;
31618;SDS011;18230;51.502;7.108;2024-01-15T00:11:00;75.43;;;33.15;;
31618;SDS011;18230;51.502;7.108;2024-01-15T00:16:01;77.63;;;33.72;;
31618;SDS011;18230;51.502;7.108;2024-01-15T00:21:01;81.63;;;33.22;;
31618;SDS011;18230;51.502;7.108;2024-01-15T00:26:03;76.97;;;31.27;;
31618;SDS011;18230;51.502;7.108;2024-01-15T00:31:04;76.30;;;31.45;;
31618;SDS011;18230;51.502;7.108;2024-01-15T00:36:05;73.00;;;33.60;;
31618;SDS011;18230;51.502;7.108;2024-01-15T00:41:06;73.78;;;31.60;;
31618;SDS011;18230;51.502;7.108;2024-01-15T00:46:07;72.13;;;31.25;;
31618;SDS011;18230;51.502;7.108;2024-01-15T00:51:08;69.75;;;30.00;;
31618;SDS011;18230;51.502;7.108;2024-01-15T00:56:08;71.18;;;30.60;;
31618;SDS011;18230;51.502;7.108;2024-01-15T01:01:09;69.18;;;29.63;;
31618;SDS011;18230;51.502;7.108;2024-01-15T01:06:09;69.60;;;29.20;;
31618;SDS011;18230;51.502;7.108;2024-01-15T01:11:14;64.93;;;28.45;;
31618;SDS011;18230;51.502;7.108;2024-01-15T01:16:15;57.95;;;26.70;;
31618;SDS011;18230;51.502;7.108;2024-01-15T01:21:16;57.53;;;26.92;;
31618;SDS011;18230;51.502;7.108;2024-01-15T01:26:17;53.55;;;23.98;;
31618;SDS011;18230;51.502;7.108;2024-01-15T01:31:18;55.20;;;24.52;;
31618;SDS011;18230;51.502;7.108;2024-01-15T01:36:18;62.63;;;25.15;;
31618;SDS011;18230;51.502;7.108;2024-01-15T01:41:19;55.85;;;24.60;;
31618;SDS011;18230;51.502;7.108;2024-01-15T01:46:19;49.08;;;23.05;;
31618;SDS011;18230;51.502;7.108;2024-01-15T01:51:20;55.72;;;24.38;;
31618;SDS011;18230;51.502;7.108;2024-01-15T01:56:23;52.25;;;24.58;;
31618;SDS011;18230;51.502;7.108;2024-01-15T02:01:23;53.97;;;25.02;;
31618;SDS011;18230;51.502;7.108;2024-01-15T02:06:24;55.40;;;24.52;;
31618;SDS011;18230;51.502;7.108;2024-01-15T02:11:25;54.58;;;25.65;;
31618;SDS011;18230;51.502;7.108;2024-01-15T02:16:25;53.05;;;24.52;;
31618;SDS011;18230;51.502;7.108;2024-01-15T02:21:26;52.40;;;22.05;;
31618;SDS011;18230;51.502;7.108;2024-01-15T02:26:28;46.65;;;22.40;;
31618;SDS011;18230;51.502;7.108;2024-01-15T02:31:29;51.72;;;22.75;;
31618;SDS011;18230;51.502;7.108;2024-01-15T02:36:30;50.30;;;24.25;;
31618;SDS011;18230;51.502;7.108;2024-01-15T02:41:30;56.72;;;23.85;;
31618;SDS011;18230;51.502;7.108;2024-01-15T02:46:31;60.03;;;22.58;;
31618;SDS011;18230;51.502;7.108;2024-01-15T02:51:32;48.13;;;22.50;;
31618;SDS011;18230;51.502;7.108;2024-01-15T02:56:32;51.97;;;23.10;;
31618;SDS011;18230;51.502;7.108;2024-01-15T03:01:33;53.75;;;21.60;;
31618;SDS011;18230;51.502;7.108;2024-01-15T03:06:33;45.78;;;19.83;;
31618;SDS011;18230;51.502;7.108;2024-01-15T03:11:38;51.88;;;20.35;;
31618;SDS011;18230;51.502;7.108;2024-01-15T03:16:39;42.17;;;19.00;;
31618;SDS011;18230;51.502;7.108;2024-01-15T03:21:39;48.35;;;17.83;;
31618;SDS011;18230;51.502;7.108;2024-01-15T03:26:40;47.35;;;18.13;;
31618;SDS011;18230;51.502;7.108;2024-01-15T03:31:41;43.05;;;16.52;;
31618;SDS011;18230;51.502;7.108;2024-01-15T03:36:41;39.10;;;15.75;;
31618;SDS011;18230;51.502;7.108;2024-01-15T03:41:42;38.83;;;14.85;;
31618;SDS011;18230;51.502;7.108;2024-01-15T03:46:43;41.30;;;14.93;;
31618;SDS011;18230;51.502;7.108;2024-01-15T03:51:43;32.03;;;14.25;;
31618;SDS011;18230;51.502;7.108;2024-01-15T03:56:44;30.17;;;13.23;;
31618;SDS011;18230;51.502;7.108;2024-01-15T04:01:48;25.95;;;12.35;;
31618;SDS011;18230;51.502;7.108;2024-01-15T04:06:50;30.98;;;13.10;;
31618;SDS011;18230;51.502;7.108;2024-01-15T04:11:51;28.42;;;12.32;;
31618;SDS011;18230;51.502;7.108;2024-01-15T04:16:52;35.78;;;13.60;;
31618;SDS011;18230;51.502;7.108;2024-01-15T04:21:52;33.28;;;13.10;;
31618;SDS011;18230;51.502;7.108;2024-01-15T04:26:53;29.80;;;12.98;;
31618;SDS011;18230;51.502;7.108;2024-01-15T04:31:53;32.33;;;13.68;;
31618;SDS011;18230;51.502;7.108;2024-01-15T04:36:54;32.15;;;13.75;;
31618;SDS011;18230;51.502;7.108;2024-01-15T04:41:55;34.08;;;14.65;;
31618;SDS011;18230;51.502;7.108;2024-01-15T04:46:55;33.83;;;15.90;;
31618;SDS011;18230;51.502;7.108;2024-01-15T04:51:56;38.25;;;17.33;;
31618;SDS011;18230;51.502;7.108;2024-01-15T04:56:57;36.05;;;17.25;;
31618;SDS011;18230;51.502;7.108;2024-01-15T05:01:58;37.78;;;17.33;;
31618;SDS011;18230;51.502;7.108;2024-01-15T05:06:58;36.28;;;17.88;;
31618;SDS011;18230;51.502;7.108;2024-01-15T05:11:59;30.98;;;16.20;;
31618;SDS011;18230;51.502;7.108;2024-01-15T05:17:00;32.45;;;15.98;;
31618;SDS011;18230;51.502;7.108;2024-01-15T05:22:00;36.03;;;14.85;;
31618;SDS011;18230;51.502;7.108;2024-01-15T05:27:01;32.78;;;14.98;;
31618;SDS011;18230;51.502;7.108;2024-01-15T05:32:01;32.15;;;14.73;;
31618;SDS011;18230;51.502;7.108;2024-01-15T05:37:02;30.15;;;13.55;;
31618;SDS011;18230;51.502;7.108;2024-01-15T05:42:03;26.20;;;13.00;;
31618;SDS011;18230;51.502;7.108;2024-01-15T05:47:04;28.55;;;13.77;;
31618;SDS011;18230;51.502;7.108;2024-01-15T05:52:05;25.55;;;12.88;;
31618;SDS011;18230;51.502;7.108;2024-01-15T05:57:05;27.15;;;13.70;;
31618;SDS011;18230;51.502;7.108;2024-01-15T06:02:06;33.42;;;13.30;;
31618;SDS011;18230;51.502;7.108;2024-01-15T06:07:07;33.38;;;12.98;;
31618;SDS011;18230;51.502;7.108;2024-01-15T06:12:07;29.75;;;12.77;;
31618;SDS011;18230;51.502;7.108;2024-01-15T06:17:08;23.27;;;11.70;;
31618;SDS011;18230;51.502;7.108;2024-01-15T06:22:09;23.92;;;11.65;;
31618;SDS011;18230;51.502;7.108;2024-01-15T06:27:09;31.23;;;12.40;;
31618;SDS011;18230;51.502;7.108;2024-01-15T06:32:10;34.35;;;11.98;;
31618;SDS011;18230;51.502;7.108;2024-01-15T06:37:11;30.40;;;12.65;;
31618;SDS011;18230;51.502;7.108;2024-01-15T06:42:11;25.33;;;12.57;;
31618;SDS011;18230;51.502;7.108;2024-01-15T06:47:12;29.08;;;11.32;;
31618;SDS011;18230;51.502;7.108;2024-01-15T06:52:14;29.92;;;14.38;;
31618;SDS011;18230;51.502;7.108;2024-01-15T06:57:15;24.90;;;12.57;;
31618;SDS011;18230;51.502;7.108;2024-01-15T07:02:15;30.58;;;13.57;;
31618;SDS011;18230;51.502;7.108;2024-01-15T07:07:16;32.10;;;12.20;;
31618;SDS011;18230;51.502;7.108;2024-01-15T07:12:17;21.30;;;11.05;;
31618;SDS011;18230;51.502;7.108;2024-01-15T07:17:17;27.17;;;10.93;;
31618;SDS011;18230;51.502;7.108;2024-01-15T07:22:18;20.80;;;9.32;;
31618;SDS011;18230;51.502;7.108;2024-01-15T07:27:19;15.73;;;8.82;;
31618;SDS011;18230;51.502;7.108;2024-01-15T07:32:20;16.27;;;9.45;;
31618;SDS011;18230;51.502;7.108;2024-01-15T07:37:21;17.63;;;7.97;;
31618;SDS011;18230;51.502;7.108;2024-01-15T07:42:23;17.45;;;8.57;;
31618;SDS011;18230;51.502;7.108;2024-01-15T07:47:23;18.10;;;7.93;;
31618;SDS011;18230;51.502;7.108;2024-01-15T07:52:24;17.30;;;7.30;;
31618;SDS011;18230;51.502;7.108;2024-01-15T07:57:25;15.18;;;8.30;;
31618;SDS011;18230;51.502;7.108;2024-01-15T08:02:26;16.10;;;6.93;;
31618;SDS011;18230;51.502;7.108;2024-01-15T08:07:27;14.43;;;7.53;;
31618;SDS011;18230;51.502;7.108;2024-01-15T08:12:27;10.55;;;6.82;;
31618;SDS011;18230;51.502;7.108;2024-01-15T08:17:28;15.35;;;7.13;;
31618;SDS011;18230;51.502;7.108;2024-01-15T08:22:29;15.93;;;8.20;;
31618;SDS011;18230;51.502;7.108;2024-01-15T08:27:29;22.05;;;10.70;;
31618;SDS011;18230;51.502;7.108;2024-01-15T08:32:30;18.85;;;10.82;;
31618;SDS011;18230;51.502;7.108;2024-01-15T08:37:31;21.60;;;13.18;;
31618;SDS011;18230;51.502;7.108;2024-01-15T08:42:31;25.60;;;14.05;;
31618;SDS011;18230;51.502;7.108;2024-01-15T08:47:32;28.83;;;17.27;;
31618;SDS011;18230;51.502;7.108;2024-01-15T08:52:33;32.95;;;18.48;;
31618;SDS011;18230;51.502;7.108;2024-01-15T08:57:33;31.52;;;19.23;;
31618;SDS011;18230;51.502;7.108;2024-01-15T09:02:37;30.10;;;19.42;;
31618;SDS011;18230;51.502;7.108;2024-01-15T09:07:38;41.15;;;21.55;;
31618;SDS011;18230;51.502;7.108;2024-01-15T09:12:39;38.58;;;22.90;;
31618;SDS011;18230;51.502;7.108;2024-01-15T09:17:42;38.50;;;22.17;;
31618;SDS011;18230;51.502;7.108;2024-01-15T09:22:43;37.08;;;21.15;;
31618;SDS011;18230;51.502;7.108;2024-01-15T09:27:44;44.08;;;22.65;;
31618;SDS011;18230;51.502;7.108;2024-01-15T09:32:45;33.70;;;18.10;;
31618;SDS011;18230;51.502;7.108;2024-01-15T09:37:45;32.00;;;17.02;;
31618;SDS011;18230;51.502;7.108;2024-01-15T09:42:46;33.85;;;15.95;;
31618;SDS011;18230;51.502;7.108;2024-01-15T09:47:47;28.58;;;14.50;;
31618;SDS011;18230;51.502;7.108;2024-01-15T09:52:48;30.67;;;16.65;;
31618;SDS011;18230;51.502;7.108;2024-01-15T09:57:50;35.40;;;18.08;;
31618;SDS011;18230;51.502;7.108;2024-01-15T10:02:51;36.05;;;19.45;;
31618;SDS011;18230;51.502;7.108;2024-01-15T10:07:53;44.75;;;22.85;;
31618;SDS011;18230;51.502;7.108;2024-01-15T10:12:56;31.33;;;18.02;;
31618;SDS011;18230;51.502;7.108;2024-01-15T10:17:59;32.38;;;17.90;;
31618;SDS011;18230;51.502;7.108;2024-01-15T10:23:00;29.23;;;16.60;;
31618;SDS011;18230;51.502;7.108;2024-01-15T10:28:01;30.02;;;17.25;;
31618;SDS011;18230;51.502;7.108;2024-01-15T10:33:03;26.08;;;15.77;;
31618;SDS011;18230;51.502;7.108;2024-01-15T10:38:05;28.15;;;15.90;;
31618;SDS011;18230;51.502;7.108;2024-01-15T10:43:06;22.70;;;13.32;;
31618;SDS011;18230;51.502;7.108;2024-01-15T10:48:07;23.58;;;13.63;;
31618;SDS011;18230;51.502;7.108;2024-01-15T10:53:08;26.17;;;13.25;;
31618;SDS011;18230;51.502;7.108;2024-01-15T10:58:11;22.42;;;13.88;;
31618;SDS011;18230;51.502;7.108;2024-01-15T11:03:13;21.13;;;13.27;;
31618;SDS011;18230;51.502;7.108;2024-01-15T11:08:16;25.95;;;11.93;;
31618;SDS011;18230;51.502;7.108;2024-01-15T11:13:22;19.55;;;10.32;;
31618;SDS011;18230;51.502;7.108;2024-01-15T11:18:41;20.33;;;10.80;;
31618;SDS011;18230;51.502;7.108;2024-01-15T11:28:48;24.92;;;10.82;;
31618;SDS011;18230;51.502;7.108;2024-01-15T11:33:49;16.52;;;9.38;;
31618;SDS011;18230;51.502;7.108;2024-01-15T11:38:50;18.48;;;8.70;;
31618;SDS011;18230;51.502;7.108;2024-01-15T11:43:50;14.85;;;8.85;;
31618;SDS011;18230;51.502;7.108;2024-01-15T11:48:52;12.40;;;7.47;;
31618;SDS011;18230;51.502;7.108;2024-01-15T11:54:03;13.90;;;7.28;;
31618;SDS011;18230;51.502;7.108;2024-01-15T11:59:09;10.23;;;7.87;;
31618;SDS011;18230;51.502;7.108;2024-01-15T12:04:10;14.05;;;7.13;;
31618;SDS011;18230;51.502;7.108;2024-01-15T12:09:10;19.23;;;7.50;;
31618;SDS011;18230;51.502;7.108;2024-01-15T12:14:11;14.68;;;7.43;;
31618;SDS011;18230;51.502;7.108;2024-01-15T12:19:13;13.43;;;7.10;;
31618;SDS011;18230;51.502;7.108;2024-01-15T12:24:16;13.98;;;8.23;;
31618;SDS011;18230;51.502;7.108;2024-01-15T12:29:17;14.75;;;8.52;;
31618;SDS011;18230;51.502;7.108;2024-01-15T12:34:18;12.93;;;7.07;;
31618;SDS011;18230;51.502;7.108;2024-01-15T12:39:20;15.43;;;6.68;;
31618;SDS011;18230;51.502;7.108;2024-01-15T12:44:21;15.57;;;6.25;;
31618;SDS011;18230;51.502;7.108;2024-01-15T12:49:23;15.70;;;5.72;;
31618;SDS011;18230;51.502;7.108;2024-01-15T12:54:24;17.33;;;7.47;;
31618;SDS011;18230;51.502;7.108;2024-01-15T12:59:25;16.77;;;6.32;;
31618;SDS011;18230;51.502;7.108;2024-01-15T13:04:25;17.80;;;6.20;;
31618;SDS011;18230;51.502;7.108;2024-01-15T13:09:26;17.27;;;6.95;;
31618;SDS011;18230;51.502;7.108;2024-01-15T13:14:27;18.65;;;7.85;;
31618;SDS011;18230;51.502;7.108;2024-01-15T13:19:28;16.15;;;6.97;;
31618;SDS011;18230;51.502;7.108;2024-01-15T13:24:28;13.23;;;5.75;;
31618;SDS011;18230;51.502;7.108;2024-01-15T13:29:29;19.63;;;5.35;;
31618;SDS011;18230;51.502;7.108;2024-01-15T13:34:30;13.82;;;5.03;;
31618;SDS011;18230;51.502;7.108;2024-01-15T13:39:31;10.27;;;3.53;;
31618;SDS011;18230;51.502;7.108;2024-01-15T13:44:33;9.55;;;3.17;;
31618;SDS011;18230;51.502;7.108;2024-01-15T13:49:33;10.93;;;3.03;;
31618;SDS011;18230;51.502;7.108;2024-01-15T13:54:35;12.30;;;3.40;;
31618;SDS011;18230;51.502;7.108;2024-01-15T13:59:36;9.20;;;3.00;;
31618;SDS011;18230;51.502;7.108;2024-01-15T14:04:37;16.50;;;4.13;;
31618;SDS011;18230;51.502;7.108;2024-01-15T14:09:38;11.07;;;5.90;;
31618;SDS011;18230;51.502;7.108;2024-01-15T14:14:39;16.10;;;6.30;;
31618;SDS011;18230;51.502;7.108;2024-01-15T14:19:40;13.85;;;6.18;;
31618;SDS011;18230;51.502;7.108;2024-01-15T14:24:41;15.43;;;8.25;;
31618;SDS011;18230;51.502;7.108;2024-01-15T14:29:42;16.33;;;6.32;;
31618;SDS011;18230;51.502;7.108;2024-01-15T14:34:43;15.13;;;5.60;;
31618;SDS011;18230;51.502;7.108;2024-01-15T14:39:44;11.85;;;4.90;;
31618;SDS011;18230;51.502;7.108;2024-01-15T14:44:44;10.10;;;4.10;;
31618;SDS011;18230;51.502;7.108;2024-01-15T14:49:45;9.38;;;2.83;;
31618;SDS011;18230;51.502;7.108;2024-01-15T14:54:45;10.00;;;3.95;;
31618;SDS011;18230;51.502;7.108;2024-01-15T14:59:47;14.63;;;3.63;;
31618;SDS011;18230;51.502;7.108;2024-01-15T15:04:48;10.98;;;4.15;;
31618;SDS011;18230;51.502;7.108;2024-01-15T15:09:49;12.05;;;3.95;;
31618;SDS011;18230;51.502;7.108;2024-01-15T15:14:51;14.00;;;5.22;;
31618;SDS011;18230;51.502;7.108;2024-01-15T15:19:51;17.23;;;5.40;;
31618;SDS011;18230;51.502;7.108;2024-01-15T15:24:53;17.02;;;4.70;;
31618;SDS011;18230;51.502;7.108;2024-01-15T15:29:55;12.75;;;4.15;;
31618;SDS011;18230;51.502;7.108;2024-01-15T15:34:55;15.48;;;4.78;;
31618;SDS011;18230;51.502;7.108;2024-01-15T15:39:56;12.55;;;4.18;;
31618;SDS011;18230;51.502;7.108;2024-01-15T15:44:56;12.18;;;3.53;;
31618;SDS011;18230;51.502;7.108;2024-01-15T15:49:57;15.35;;;4.28;;
31618;SDS011;18230;51.502;7.108;2024-01-15T15:54:58;18.85;;;4.35;;
31618;SDS011;18230;51.502;7.108;2024-01-15T15:59:59;12.43;;;4.00;;
31618;SDS011;18230;51.502;7.108;2024-01-15T16:04:59;14.02;;;4.68;;
31618;SDS011;18230;51.502;7.108;2024-01-15T16:10:00;18.63;;;5.28;;
31618;SDS011;18230;51.502;7.108;2024-01-15T16:15:01;15.13;;;4.47;;
31618;SDS011;18230;51.502;7.108;2024-01-15T16:20:02;11.95;;;5.88;;
31618;SDS011;18230;51.502;7.108;2024-01-15T16:25:03;16.80;;;6.28;;
31618;SDS011;18230;51.502;7.108;2024-01-15T16:30:04;13.88;;;7.65;;
31618;SDS011;18230;51.502;7.108;2024-01-15T16:35:06;15.77;;;8.48;;
31618;SDS011;18230;51.502;7.108;2024-01-15T16:40:07;17.10;;;8.98;;
31618;SDS011;18230;51.502;7.108;2024-01-15T16:45:08;17.67;;;8.70;;
31618;SDS011;18230;51.502;7.108;2024-01-15T16:50:09;21.08;;;8.30;;
31618;SDS011;18230;51.502;7.108;2024-01-15T16:55:09;18.65;;;8.95;;
31618;SDS011;18230;51.502;7.108;2024-01-15T17:00:10;20.42;;;9.25;;
31618;SDS011;18230;51.502;7.108;2024-01-15T17:05:11;15.40;;;7.32;;
31618;SDS011;18230;51.502;7.108;2024-01-15T17:10:12;15.65;;;7.88;;
31618;SDS011;18230;51.502;7.108;2024-01-15T17:15:16;16.20;;;9.23;;
31618;SDS011;18230;51.502;7.108;2024-01-15T17:20:17;21.60;;;9.98;;
31618;SDS011;18230;51.502;7.108;2024-01-15T17:25:17;24.63;;;10.38;;
31618;SDS011;18230;51.502;7.108;2024-01-15T17:30:18;24.25;;;10.20;;
31618;SDS011;18230;51.502;7.108;2024-01-15T17:35:19;28.83;;;9.73;;
31618;SDS011;18230;51.502;7.108;2024-01-15T17:40:20;19.88;;;9.63;;
31618;SDS011;18230;51.502;7.108;2024-01-15T17:45:22;21.95;;;9.98;;
31618;SDS011;18230;51.502;7.108;2024-01-15T17:50:24;20.23;;;9.73;;
31618;SDS011;18230;51.502;7.108;2024-01-15T17:55:25;16.95;;;8.13;;
31618;SDS011;18230;51.502;7.108;2024-01-15T18:00:27;16.70;;;8.05;;
31618;SDS011;18230;51.502;7.108;2024-01-15T18:05:28;20.65;;;8.32;;
31618;SDS011;18230;51.502;7.108;2024-01-15T18:10:28;19.38;;;7.68;;
31618;SDS011;18230;51.502;7.108;2024-01-15T18:15:29;16.25;;;8.10;;
31618;SDS011;18230;51.502;7.108;2024-01-15T18:20:29;19.85;;;7.35;;
31618;SDS011;18230;51.502;7.108;2024-01-15T18:25:30;73.35;;;31.35;;
31618;SDS011;18230;51.502;7.108;2024-01-15T18:30:31;34.05;;;18.73;;
31618;SDS011;18230;51.502;7.108;2024-01-15T18:35:32;24.33;;;8.55;;
31618;SDS011;18230;51.502;7.108;2024-01-15T18:40:32;26.15;;;9.75;;
31618;SDS011;18230;51.502;7.108;2024-01-15T18:45:36;22.08;;;9.82;;
31618;SDS011;18230;51.502;7.108;2024-01-15T18:50:36;24.52;;;8.75;;
31618;SDS011;18230;51.502;7.108;2024-01-15T18:55:39;27.63;;;8.60;;
31618;SDS011;18230;51.502;7.108;2024-01-15T19:00:48;23.27;;;9.63;;
31618;SDS011;18230;51.502;7.108;2024-01-15T19:05:52;18.98;;;8.15;;
31618;SDS011;18230;51.502;7.108;2024-01-15T19:10:56;22.27;;;8.38;;
31618;SDS011;18230;51.502;7.108;2024-01-15T19:15:56;22.20;;;8.18;;
31618;SDS011;18230;51.502;7.108;2024-01-15T19:20:58;20.05;;;7.50;;
31618;SDS011;18230;51.502;7.108;2024-01-15T19:26:00;23.02;;;7.35;;
31618;SDS011;18230;51.502;7.108;2024-01-15T19:31:01;22.02;;;8.68;;
31618;SDS011;18230;51.502;7.108;2024-01-15T19:36:02;18.90;;;7.32;;
31618;SDS011;18230;51.502;7.108;2024-01-15T19:41:03;27.08;;;8.38;;
31618;SDS011;18230;51.502;7.108;2024-01-15T19:46:03;18.17;;;6.82;;
31618;SDS011;18230;51.502;7.108;2024-01-15T19:51:07;20.63;;;6.40;;
31618;SDS011;18230;51.502;7.108;2024-01-15T19:56:07;22.40;;;6.93;;
31618;SDS011;18230;51.502;7.108;2024-01-15T20:01:08;23.23;;;5.85;;
31618;SDS011;18230;51.502;7.108;2024-01-15T20:06:13;15.98;;;4.85;;
31618;SDS011;18230;51.502;7.108;2024-01-15T20:11:14;19.95;;;5.38;;
31618;SDS011;18230;51.502;7.108;2024-01-15T20:16:15;25.83;;;5.95;;
31618;SDS011;18230;51.502;7.108;2024-01-15T20:21:15;14.32;;;4.85;;
31618;SDS011;18230;51.502;7.108;2024-01-15T20:26:18;19.30;;;5.07;;
31618;SDS011;18230;51.502;7.108;2024-01-15T20:31:18;20.23;;;6.40;;
31618;SDS011;18230;51.502;7.108;2024-01-15T20:36:19;15.23;;;5.70;;
31618;SDS011;18230;51.502;7.108;2024-01-15T20:41:19;16.83;;;5.90;;
31618;SDS011;18230;51.502;7.108;2024-01-15T20:46:20;26.38;;;7.32;;
31618;SDS011;18230;51.502;7.108;2024-01-15T20:51:22;22.73;;;7.10;;
31618;SDS011;18230;51.502;7.108;2024-01-15T20:56:22;18.20;;;6.50;;
31618;SDS011;18230;51.502;7.108;2024-01-15T21:01:23;17.05;;;6.90;;
31618;SDS011;18230;51.502;7.108;2024-01-15T21:06:24;20.58;;;6.97;;
31618;SDS011;18230;51.502;7.108;2024-01-15T21:11:24;29.48;;;8.50;;
31618;SDS011;18230;51.502;7.108;2024-01-15T21:16:32;20.20;;;8.45;;
31618;SDS011;18230;51.502;7.108;2024-01-15T21:21:33;21.38;;;7.38;;
31618;SDS011;18230;51.502;7.108;2024-01-15T21:26:34;19.10;;;7.07;;
31618;SDS011;18230;51.502;7.108;2024-01-15T21:31:38;18.83;;;8.25;;
31618;SDS011;18230;51.502;7.108;2024-01-15T21:36:38;22.42;;;8.07;;
31618;SDS011;18230;51.502;7.108;2024-01-15T21:41:39;23.92;;;8.48;;
31618;SDS011;18230;51.502;7.108;2024-01-15T21:46:40;35.65;;;10.63;;
31618;SDS011;18230;51.502;7.108;2024-01-15T21:51:40;25.95;;;10.02;;
31618;SDS011;18230;51.502;7.108;2024-01-15T21:56:41;24.52;;;10.02;;
31618;SDS011;18230;51.502;7.108;2024-01-15T22:01:41;22.80;;;11.60;;
31618;SDS011;18230;51.502;7.108;2024-01-15T22:06:42;27.58;;;11.43;;
31618;SDS011;18230;51.502;7.108;2024-01-15T22:11:42;22.80;;;10.18;;
31618;SDS011;18230;51.502;7.108;2024-01-15T22:16:43;25.30;;;11.07;;
31618;SDS011;18230;51.502;7.108;2024-01-15T22:21:45;30.83;;;12.20;;
31618;SDS011;18230;51.502;7.108;2024-01-15T22:26:46;24.48;;;11.32;;
31618;SDS011;18230;51.502;7.108;2024-01-15T22:31:46;32.05;;;11.65;;
31618;SDS011;18230;51.502;7.108;2024-01-15T22:36:47;29.15;;;9.93;;
31618;SDS011;18230;51.502;7.108;2024-01-15T22:41:48;21.50;;;9.43;;
31618;SDS011;18230;51.502;7.108;2024-01-15T22:46:48;27.45;;;11.20;;
31618;SDS011;18230;51.502;7.108;2024-01-15T22:51:49;26.35;;;12.13;;
31618;SDS011;18230;51.502;7.108;2024-01-15T22:56:50;27.45;;;13.98;;
31618;SDS011;18230;51.502;7.108;2024-01-15T23:01:50;27.35;;;13.88;;
31618;SDS011;18230;51.502;7.108;2024-01-15T23:06:51;33.13;;;15.48;;
31618;SDS011;18230;51.502;7.108;2024-01-15T23:11:52;30.85;;;16.00;;
31618;SDS011;18230;51.502;7.108;2024-01-15T23:16:53;35.60;;;14.80;;
31618;SDS011;18230;51.502;7.108;2024-01-15T23:21:53;31.40;;;14.30;;
31618;SDS011;18230;51.502;7.108;2024-01-15T23:26:54;28.45;;;13.40;;
31618;SDS011;18230;51.502;7.108;2024-01-15T23:31:55;30.77;;;14.50;;
31618;SDS011;18230;51.502;7.108;2024-01-15T23:36:56;32.90;;;13.32;;
31618;SDS011;18230;51.502;7.108;2024-01-15T23:41:57;29.92;;;12.85;;
31618;SDS011;18230;51.502;7.108;2024-01-15T23:46:58;26.95;;;12.95;;
31618;SDS011;18230;51.502;7.108;2024-01-15T23:51:58;25.30;;;12.32;;
31618;SDS011;18230;51.502;7.108;2024-01-15T23:56:59;25.27;;;11.38;;
